Time;durP1;ratioP1;P1;durP2;ratioP2;P2;SDS_P1;SDS_P2;PMS_P1;PMS_P2;Temp;Humidity;BMP_temperature;BMP_pressure;BME280_temperature;BME280_humidity;BME280_pressure;Samples;Min_cycle;Max_cycle;Signal;HPM_P1;HPM_P2
2023/05/27 00:01:02;;;;;;;5.15;3.00;;;;;;;5.85;100.00;99647.72;4174187;28;20075;-72
2023/05/27 00:03:03;;;;;;;5.32;2.95;;;;;;;5.84;100.00;99655.16;4172991;28;20092;-71
2023/05/27 00:05:03;;;;;;;5.13;2.70;;;;;;;5.82;100.00;99656.59;4163335;28;20052;-71
2023/05/27 00:07:04;;;;;;;5.35;2.88;;;;;;;5.83;100.00;99658.22;4159977;28;20037;-71
2023/05/27 00:09:04;;;;;;;7.68;3.08;;;;;;;5.78;100.00;99659.16;4172499;28;20400;-72
2023/05/27 00:11:04;;;;;;;6.35;2.92;;;;;;;5.74;100.00;99660.13;4161445;28;20065;-72
2023/05/27 00:13:05;;;;;;;5.65;2.80;;;;;;;5.76;100.00;99663.34;4159005;28;20558;-72
2023/05/27 00:15:06;;;;;;;6.47;2.70;;;;;;;5.75;100.00;99654.31;4167161;28;20072;-72
2023/05/27 00:17:09;;;;;;;7.57;2.85;;;;;;;5.74;100.00;99657.38;4174551;28;20120;-72
2023/05/27 00:19:09;;;;;;;;;;;;;;;5.67;100.00;99665.25;4162200;28;20056;-72
2023/05/27 00:21:10;;;;;;;5.57;2.47;;;;;;;5.57;100.00;99664.41;4159566;28;19918;-72
2023/05/27 00:23:10;;;;;;;8.43;3.50;;;;;;;5.49;100.00;99665.19;4158742;28;20048;-72
2023/05/27 00:25:10;;;;;;;5.15;2.60;;;;;;;5.44;100.00;99656.25;4159482;28;20046;-72
2023/05/27 00:27:11;;;;;;;9.32;2.90;;;;;;;5.36;100.00;99660.59;4162271;28;20041;-72
2023/05/27 00:29:11;;;;;;;8.95;3.08;;;;;;;5.29;100.00;99652.78;4161113;28;20053;-72
2023/05/27 00:31:11;;;;;;;5.53;2.60;;;;;;;5.29;100.00;99666.50;4160070;28;20473;-72
2023/05/27 00:33:12;;;;;;;7.53;2.80;;;;;;;5.28;100.00;99661.34;4161884;28;20559;-72
2023/05/27 00:35:12;;;;;;;11.15;3.28;;;;;;;5.26;100.00;99664.41;4170569;28;20092;-72
2023/05/27 00:37:14;;;;;;;7.25;3.00;;;;;;;5.25;100.00;99670.22;4159907;28;20064;-72
2023/05/27 00:39:14;;;;;;;8.83;2.97;;;;;;;5.20;100.00;99662.91;4159897;28;20042;-72
2023/05/27 00:41:14;;;;;;;7.80;2.97;;;;;;;5.17;100.00;99666.28;4174490;28;20115;-72
2023/05/27 00:43:15;;;;;;;7.03;3.05;;;;;;;5.12;100.00;99671.09;4171746;28;20196;-72
2023/05/27 00:45:15;;;;;;;8.68;2.55;;;;;;;5.07;100.00;99670.09;4169889;28;20120;-72
2023/05/27 00:47:16;;;;;;;7.57;3.38;;;;;;;5.07;100.00;99663.81;4164955;28;20124;-72
2023/05/27 00:49:17;;;;;;;8.77;3.08;;;;;;;5.07;100.00;99663.81;4173250;28;20041;-72
2023/05/27 00:51:18;;;;;;;6.93;2.92;;;;;;;5.02;100.00;99667.47;4173737;28;20568;-72
2023/05/27 00:53:19;;;;;;;5.97;3.58;;;;;;;4.94;100.00;99664.69;4161575;28;20075;-72
2023/05/27 00:55:19;;;;;;;8.18;3.35;;;;;;;4.83;100.00;99658.63;4159807;28;20042;-72
2023/05/27 00:57:20;;;;;;;10.80;3.10;;;;;;;4.85;100.00;99659.13;4163817;28;20052;-72
2023/05/27 00:59:21;;;;;;;6.70;2.90;;;;;;;4.80;100.00;99667.50;4159401;28;20046;-72
2023/05/27 01:01:25;;;;;;;7.75;3.47;;;;;;;4.78;100.00;99662.31;4162226;28;20044;-72
2023/05/27 01:03:28;;;;;;;8.57;3.80;;;;;;;4.74;100.00;99664.06;4159810;28;20048;-72
2023/05/27 01:05:29;;;;;;;6.57;2.90;;;;;;;4.73;100.00;99664.38;4165386;28;20374;-72
2023/05/27 01:07:50;;;;;;;6.40;3.05;;;;;;;4.69;100.00;99666.91;4158768;28;20048;-71
2023/05/27 01:09:53;;;;;;;7.95;2.65;;;;;;;4.69;100.00;99671.59;4158940;28;20050;-72
2023/05/27 01:12:26;;;;;;;5.80;3.15;;;;;;;4.70;100.00;99662.22;4160988;28;20038;-72
2023/05/27 01:14:27;;;;;;;4.05;3.13;;;;;;;4.68;100.00;99667.22;4167486;28;20071;-71
2023/05/27 01:16:28;;;;;;;8.60;3.60;;;;;;;4.64;100.00;99658.81;4172980;28;20036;-71
2023/05/27 01:18:33;;;;;;;6.18;2.70;;;;;;;4.59;100.00;99658.94;4158842;28;20056;-71
2023/05/27 01:20:33;;;;;;;9.32;3.08;;;;;;;4.60;100.00;99657.81;4170888;28;20077;-72
2023/05/27 01:22:35;;;;;;;6.82;2.80;;;;;;;4.59;100.00;99652.63;4172914;28;20130;-72
2023/05/27 01:24:37;;;;;;;6.75;3.22;;;;;;;4.49;100.00;99656.44;4161464;28;20477;-72
2023/05/27 01:26:37;;;;;;;9.40;3.15;;;;;;;4.45;100.00;99658.97;4164059;28;20045;-72
2023/05/27 01:28:37;;;;;;;10.57;3.22;;;;;;;4.40;100.00;99655.53;4158500;28;20124;-72
2023/05/27 01:30:38;;;;;;;6.82;3.00;;;;;;;4.35;100.00;99650.97;4158784;28;20405;-72
2023/05/27 01:32:48;;;;;;;13.00;2.95;;;;;;;4.33;100.00;99652.41;4157740;28;20132;-72
2023/05/27 01:35:02;;;;;;;6.95;3.55;;;;;;;4.31;100.00;99663.69;4159548;28;20053;-71
2023/05/27 01:37:06;;;;;;;5.30;2.53;;;;;;;4.26;100.00;99657.50;4160174;28;20494;-71
2023/05/27 01:39:11;;;;;;;6.22;2.88;;;;;;;4.25;100.00;99659.44;4157979;28;20034;-71
2023/05/27 01:41:14;;;;;;;7.93;3.00;;;;;;;4.28;100.00;99658.00;4158155;28;20053;-71
2023/05/27 01:43:15;;;;;;;6.28;2.50;;;;;;;4.29;100.00;99667.81;4172075;28;20049;-71
2023/05/27 01:45:16;;;;;;;5.20;2.83;;;;;;;4.27;100.00;99665.41;4165567;28;20473;-71
2023/05/27 01:47:16;;;;;;;5.00;2.60;;;;;;;4.30;100.00;99659.28;4161999;28;20057;-71
2023/05/27 01:49:16;;;;;;;5.68;2.95;;;;;;;4.30;100.00;99664.78;4168513;28;20053;-71
2023/05/27 01:51:17;;;;;;;4.57;2.58;;;;;;;4.28;100.00;99656.06;4165758;28;20034;-71
2023/05/27 01:53:17;;;;;;;5.05;2.78;;;;;;;4.26;100.00;99669.25;4158010;28;20425;-71
2023/05/27 01:55:17;;;;;;;5.80;2.75;;;;;;;4.25;100.00;99662.16;4159353;28;20421;-71
2023/05/27 01:57:19;;;;;;;6.07;2.70;;;;;;;4.23;100.00;99659.75;4159570;28;20045;-71
2023/05/27 01:59:19;;;;;;;6.53;3.10;;;;;;;4.20;100.00;99652.13;4158578;28;20135;-71
2023/05/27 02:01:21;;;;;;;7.35;3.53;;;;;;;4.20;100.00;99656.78;4171106;28;20041;-71
2023/05/27 02:03:22;;;;;;;5.03;2.47;;;;;;;4.17;100.00;99650.00;4159486;28;20148;-71
2023/05/27 02:05:23;;;;;;;5.88;3.17;;;;;;;4.16;100.00;99647.56;4160952;28;20150;-71
2023/05/27 02:07:23;;;;;;;4.90;2.67;;;;;;;4.12;100.00;99643.81;4158347;28;20037;-71
2023/05/27 02:09:24;;;;;;;8.93;2.65;;;;;;;4.08;100.00;99649.09;4169932;28;20465;-72
2023/05/27 02:11:25;;;;;;;7.25;3.28;;;;;;;4.03;100.00;99645.66;4158355;28;20040;-72
2023/05/27 02:13:25;;;;;;;9.68;3.72;;;;;;;3.95;100.00;99648.00;4160137;28;20072;-72
2023/05/27 02:15:26;;;;;;;7.60;3.20;;;;;;;3.93;100.00;99650.22;4172930;28;20079;-72
2023/05/27 02:17:27;;;;;;;10.60;3.35;;;;;;;3.92;100.00;99648.63;4173081;28;20124;-71
2023/05/27 02:19:27;;;;;;;7.32;3.60;;;;;;;3.90;100.00;99639.91;4172358;28;20473;-71
2023/05/27 02:21:28;;;;;;;6.32;2.70;;;;;;;3.88;100.00;99633.09;4173333;28;20033;-71
2023/05/27 02:23:28;;;;;;;5.03;2.72;;;;;;;3.85;100.00;99640.00;4160732;28;20045;-71
2023/05/27 02:25:28;;;;;;;11.02;3.85;;;;;;;3.79;100.00;99641.22;4157390;28;20041;-71
2023/05/27 02:27:29;;;;;;;9.73;3.67;;;;;;;3.78;100.00;99641.50;4158170;28;20049;-71
2023/05/27 02:29:29;;;;;;;6.55;2.75;;;;;;;3.74;100.00;99641.31;4158139;28;20378;-71
2023/05/27 02:31:29;;;;;;;6.25;3.00;;;;;;;3.74;100.00;99643.25;4157773;28;20048;-71
2023/05/27 02:33:30;;;;;;;6.15;2.85;;;;;;;3.69;100.00;99641.41;4157638;28;20140;-71
2023/05/27 02:35:31;;;;;;;8.40;2.90;;;;;;;3.66;100.00;99640.09;4157807;28;20073;-71
2023/05/27 02:37:32;;;;;;;8.73;3.13;;;;;;;3.64;100.00;99639.59;4157803;28;20033;-71
2023/05/27 02:39:32;;;;;;;7.13;2.80;;;;;;;3.63;100.00;99637.97;4157776;28;20463;-71
2023/05/27 02:41:33;;;;;;;7.78;3.20;;;;;;;3.61;100.00;99639.38;4157861;28;20129;-71
2023/05/27 02:43:33;;;;;;;10.23;3.75;;;;;;;3.63;100.00;99637.16;4162233;28;20462;-71
2023/05/27 02:45:33;;;;;;;7.85;3.75;;;;;;;3.60;100.00;99641.31;4157471;28;20050;-71
2023/05/27 02:47:34;;;;;;;9.40;3.95;;;;;;;3.55;100.00;99637.84;4158155;28;20073;-71
2023/05/27 02:49:34;;;;;;;8.30;3.75;;;;;;;3.54;100.00;99647.19;4157468;28;20095;-71
2023/05/27 02:51:35;;;;;;;5.88;3.33;;;;;;;3.52;100.00;99638.47;4157704;28;20041;-71
2023/05/27 02:53:36;;;;;;;6.13;2.60;;;;;;;3.51;100.00;99651.34;4157380;28;20053;-71
2023/05/27 02:55:36;;;;;;;11.27;3.30;;;;;;;3.49;100.00;99637.16;4164432;28;20045;-71
2023/05/27 02:57:36;;;;;;;6.53;3.15;;;;;;;3.54;100.00;99649.91;4160304;28;20128;-71
2023/05/27 02:59:37;;;;;;;6.90;3.13;;;;;;;3.50;100.00;99641.53;4157837;28;20042;-71
2023/05/27 03:01:37;;;;;;;9.02;4.00;;;;;;;3.47;100.00;99644.03;4157681;28;20041;-71
2023/05/27 03:03:37;;;;;;;6.57;3.55;;;;;;;3.43;100.00;99638.38;4156975;28;20041;-71
2023/05/27 03:05:38;;;;;;;6.80;3.50;;;;;;;3.44;100.00;99640.00;4165199;28;20068;-71
2023/05/27 03:07:38;;;;;;;8.32;3.30;;;;;;;3.44;100.00;99642.72;4172084;28;20584;-71
2023/05/27 03:09:38;;;;;;;8.45;3.47;;;;;;;3.43;100.00;99648.50;4172496;28;20099;-71
2023/05/27 03:11:39;;;;;;;9.40;3.20;;;;;;;3.39;100.00;99648.28;4168903;28;20065;-71
2023/05/27 03:13:39;;;;;;;7.95;2.72;;;;;;;3.36;100.00;99660.66;4157689;28;20486;-71
2023/05/27 03:15:39;;;;;;;10.88;4.68;;;;;;;3.29;100.00;99649.28;4166196;28;20045;-71
2023/05/27 03:17:40;;;;;;;7.95;4.10;;;;;;;3.23;100.00;99646.97;4174265;28;20064;-71
2023/05/27 03:19:40;;;;;;;8.63;2.83;;;;;;;3.20;100.00;99644.81;4166275;28;20868;-72
2023/05/27 03:21:40;;;;;;;7.18;3.03;;;;;;;3.18;100.00;99647.03;4163507;28;20067;-71
2023/05/27 03:23:41;;;;;;;7.28;3.47;;;;;;;3.14;100.00;99646.00;4174602;28;20045;-71
2023/05/27 03:25:41;;;;;;;7.60;3.28;;;;;;;3.08;100.00;99651.59;4173476;28;20033;-71
2023/05/27 03:27:41;;;;;;;5.40;2.97;;;;;;;3.11;100.00;99647.44;4174083;28;20125;-71
2023/05/27 03:29:42;;;;;;;5.85;3.50;;;;;;;3.16;100.00;99652.00;4160684;28;20073;-71
2023/05/27 03:31:42;;;;;;;7.05;3.63;;;;;;;3.15;100.00;99644.91;4162989;28;20104;-71
2023/05/27 03:33:42;;;;;;;8.65;3.40;;;;;;;3.13;100.00;99645.19;4166081;28;20049;-71
2023/05/27 03:35:43;;;;;;;5.10;2.88;;;;;;;3.12;100.00;99645.50;4167109;28;20080;-71
2023/05/27 03:37:43;;;;;;;7.55;3.13;;;;;;;3.10;100.00;99637.59;4175006;28;20327;-71
2023/05/27 03:39:43;;;;;;;5.65;2.90;;;;;;;3.11;100.00;99641.97;4175118;28;20053;-71
2023/05/27 03:41:44;;;;;;;12.23;3.78;;;;;;;3.10;100.00;99646.63;4161680;28;20045;-71
2023/05/27 03:43:44;;;;;;;7.63;2.88;;;;;;;3.13;100.00;99644.38;4160631;28;20385;-71
2023/05/27 03:45:45;;;;;;;11.82;4.75;;;;;;;3.21;100.00;99646.44;4165681;28;20068;-71
2023/05/27 03:47:45;;;;;;;4.47;2.83;;;;;;;3.19;100.00;99654.13;4170329;28;20044;-71
2023/05/27 03:49:45;;;;;;;7.18;3.53;;;;;;;3.13;100.00;99652.59;4163880;28;20046;-71
2023/05/27 03:51:46;;;;;;;8.07;3.30;;;;;;;3.17;100.00;99648.97;4166217;28;20036;-71
2023/05/27 03:53:47;;;;;;;7.75;2.80;;;;;;;3.04;100.00;99652.47;4161618;28;20048;-71
2023/05/27 03:55:47;;;;;;;4.43;2.97;;;;;;;3.05;100.00;99662.28;4169512;28;20053;-71
2023/05/27 03:57:47;;;;;;;5.88;3.38;;;;;;;3.02;100.00;99652.78;4167515;28;20037;-71
2023/05/27 03:59:48;;;;;;;8.05;3.42;;;;;;;3.02;100.00;99644.56;4160505;28;20366;-71
2023/05/27 04:01:48;;;;;;;6.88;3.40;;;;;;;3.08;100.00;99658.97;4170495;28;20481;-71
2023/05/27 04:03:49;;;;;;;6.32;2.78;;;;;;;3.09;100.00;99652.38;4171633;28;20037;-71
2023/05/27 04:05:49;;;;;;;6.07;3.00;;;;;;;3.13;100.00;99656.13;4169432;28;20256;-71
2023/05/27 04:07:51;;;;;;;10.45;3.60;;;;;;;3.23;100.00;99658.72;4159691;28;20472;-71
2023/05/27 04:09:52;;;;;;;13.63;3.93;;;;;;;3.25;100.00;99650.19;4160057;28;20045;-71
2023/05/27 04:11:52;;;;;;;5.40;3.08;;;;;;;3.30;100.00;99661.03;4159754;28;20044;-71
2023/05/27 04:13:52;;;;;;;5.00;3.10;;;;;;;3.41;100.00;99656.22;4159574;28;20144;-71
2023/05/27 04:15:53;;;;;;;6.60;3.30;;;;;;;3.49;100.00;99659.06;4168336;28;20156;-71
2023/05/27 04:17:53;;;;;;;9.95;3.50;;;;;;;3.59;100.00;99658.03;4159637;28;20042;-70
2023/05/27 04:19:54;;;;;;;7.22;3.40;;;;;;;3.67;100.00;99654.59;4169906;28;20519;-71
2023/05/27 04:21:55;;;;;;;7.22;3.75;;;;;;;3.77;100.00;99665.34;4169989;28;20064;-71
2023/05/27 04:23:55;;;;;;;8.52;3.55;;;;;;;3.84;100.00;99664.94;4155159;28;20073;-71
2023/05/27 04:25:56;;;;;;;9.55;3.80;;;;;;;3.91;100.00;99662.63;4159027;28;20088;-71
2023/05/27 04:27:57;;;;;;;7.57;4.03;;;;;;;3.96;100.00;99657.00;4158776;28;20045;-71
2023/05/27 04:29:57;;;;;;;11.75;5.13;;;;;;;4.00;100.00;99658.03;4159061;28;20402;-71
2023/05/27 04:31:58;;;;;;;10.05;5.18;;;;;;;4.07;100.00;99657.63;4158383;28;20125;-71
2023/05/27 04:33:58;;;;;;;10.80;5.10;;;;;;;4.08;100.00;99665.53;4158365;28;20128;-71
2023/05/27 04:35:59;;;;;;;8.38;4.78;;;;;;;4.18;100.00;99662.56;4157642;28;20456;-71
2023/05/27 04:38:00;;;;;;;9.55;5.05;;;;;;;4.29;100.00;99659.59;4159345;28;20124;-71
2023/05/27 04:40:03;;;;;;;9.02;4.63;;;;;;;4.39;100.00;99657.47;4158543;28;20065;-71
2023/05/27 04:42:03;;;;;;;;;;;;;;;4.49;100.00;99662.72;4159043;28;20040;-71
2023/05/27 04:44:05;;;;;;;11.60;4.90;;;;;;;4.59;100.00;99658.94;4158432;28;19912;-71
2023/05/27 04:46:06;;;;;;;10.50;4.35;;;;;;;4.69;100.00;99650.47;4158902;28;20033;-71
2023/05/27 04:48:06;;;;;;;7.40;4.20;;;;;;;4.82;100.00;99656.22;4158018;28;20029;-71
2023/05/27 04:50:08;;;;;;;9.77;4.47;;;;;;;4.93;100.00;99654.81;4160137;28;20027;-71
2023/05/27 04:52:09;;;;;;;9.05;4.03;;;;;;;5.06;100.00;99656.72;4157524;28;20037;-71
2023/05/27 04:54:09;;;;;;;8.25;4.57;;;;;;;5.17;100.00;99660.00;4157874;28;20458;-71
2023/05/27 04:56:10;;;;;;;6.68;4.10;;;;;;;5.28;100.00;99651.16;4158666;28;20037;-71
2023/05/27 04:58:12;;;;;;;9.70;4.38;;;;;;;5.44;100.00;99656.25;4160966;28;20026;-71
2023/05/27 05:02:21;;;;;;;7.20;3.90;;;;;;;5.68;100.00;99651.22;4158879;28;20032;-71
2023/05/27 05:04:21;;;;;;;8.23;3.85;;;;;;;5.83;100.00;99648.03;4156660;28;20085;-71
2023/05/27 05:06:22;;;;;;;8.13;4.07;;;;;;;5.96;100.00;99649.09;4158591;28;20045;-71
2023/05/27 05:08:23;;;;;;;6.20;3.42;;;;;;;6.09;100.00;99644.59;4160804;28;20382;-71
2023/05/27 05:10:24;;;;;;;10.93;4.60;;;;;;;6.19;100.00;99649.78;4157851;28;20049;-71
2023/05/27 05:12:25;;;;;;;10.23;3.60;;;;;;;6.30;100.00;99637.34;4160437;28;20212;-72
2023/05/27 05:14:25;;;;;;;8.35;4.35;;;;;;;6.39;100.00;99643.69;4156906;28;20045;-71
2023/05/27 05:16:26;;;;;;;8.23;4.85;;;;;;;6.52;100.00;99638.34;4156449;28;20041;-71
2023/05/27 05:18:26;;;;;;;12.43;3.83;;;;;;;6.61;100.00;99641.88;4156510;28;20038;-71
2023/05/27 05:20:26;;;;;;;10.30;4.15;;;;;;;6.69;100.00;99641.09;4156967;28;20129;-71
2023/05/27 05:22:28;;;;;;;8.63;3.75;;;;;;;6.78;100.00;99639.13;4155024;28;20502;-72
2023/05/27 05:24:28;;;;;;;9.20;4.07;;;;;;;6.86;100.00;99640.25;4159242;28;20049;-71
2023/05/27 05:26:29;;;;;;;9.77;4.35;;;;;;;6.94;100.00;99639.44;4156048;28;20050;-71
2023/05/27 05:28:30;;;;;;;8.80;3.97;;;;;;;6.99;100.00;99647.53;4156073;28;20061;-71
2023/05/27 05:30:31;;;;;;;9.73;4.13;;;;;;;7.08;100.00;99645.59;4151210;28;20367;-71
2023/05/27 05:32:31;;;;;;;7.78;4.30;;;;;;;7.16;100.00;99643.94;4152603;28;20056;-71
2023/05/27 05:34:32;;;;;;;9.13;4.05;;;;;;;7.18;100.00;99638.91;4154943;28;20042;-72
2023/05/27 05:36:33;;;;;;;9.98;4.22;;;;;;;7.25;100.00;99642.00;4151634;28;20509;-72
2023/05/27 05:38:33;;;;;;;11.30;4.78;;;;;;;7.36;100.00;99646.00;4156352;28;20030;-72
2023/05/27 05:40:33;;;;;;;17.10;4.85;;;;;;;7.46;100.00;99651.16;4154461;28;20413;-72
2023/05/27 05:42:33;;;;;;;10.70;4.55;;;;;;;7.53;100.00;99651.47;4157047;28;20041;-72
2023/05/27 05:44:34;;;;;;;10.02;4.57;;;;;;;7.64;100.00;99645.59;4150267;28;20050;-72
2023/05/27 05:46:34;;;;;;;9.57;4.10;;;;;;;7.75;100.00;99655.91;4153703;28;20142;-72
2023/05/27 05:48:35;;;;;;;8.50;4.70;;;;;;;7.85;100.00;99646.47;4154834;28;20061;-72
2023/05/27 05:50:36;;;;;;;16.90;5.45;;;;;;;7.96;100.00;99649.66;4112786;28;20049;-72
2023/05/27 05:52:36;;;;;;;11.02;4.95;;;;;;;8.02;100.00;99638.09;4136720;28;20044;-72
2023/05/27 05:54:36;;;;;;;12.73;5.07;;;;;;;8.09;100.00;99641.16;4138425;28;20079;-72
2023/05/27 05:56:37;;;;;;;12.00;4.65;;;;;;;8.15;100.00;99648.09;4151614;28;20050;-72
2023/05/27 05:58:37;;;;;;;9.45;4.40;;;;;;;8.22;100.00;99652.28;4145587;28;20038;-72
2023/05/27 06:00:37;;;;;;;14.30;5.30;;;;;;;8.31;100.00;99653.84;4134597;28;20342;-72
2023/05/27 06:02:38;;;;;;;9.80;4.82;;;;;;;8.40;100.00;99649.09;4136151;28;20497;-72
2023/05/27 06:04:38;;;;;;;9.07;4.70;;;;;;;8.52;100.00;99653.88;4143683;28;20076;-72
2023/05/27 06:06:40;;;;;;;9.20;4.13;;;;;;;8.63;100.00;99654.28;4154385;28;20038;-72
2023/05/27 06:08:40;;;;;;;18.50;4.65;;;;;;;8.70;100.00;99651.81;4152991;28;20045;-72
2023/05/27 06:10:41;;;;;;;16.10;4.47;;;;;;;8.77;100.00;99654.00;4157523;28;20053;-72
2023/05/27 06:12:41;;;;;;;13.38;5.22;;;;;;;8.85;100.00;99653.94;4156199;28;20049;-72
2023/05/27 06:14:41;;;;;;;11.57;4.68;;;;;;;8.95;100.00;99659.06;4161673;28;20511;-72
2023/05/27 06:16:42;;;;;;;16.17;5.78;;;;;;;9.06;100.00;99662.19;4167860;28;20045;-72
2023/05/27 06:18:45;;;;;;;9.48;4.57;;;;;;;9.13;100.00;99656.94;4162541;28;20048;-72
2023/05/27 06:20:46;;;;;;;11.90;5.05;;;;;;;9.21;100.00;99669.06;4158158;28;20703;-72
2023/05/27 06:22:48;;;;;;;12.10;4.57;;;;;;;9.30;100.00;99661.47;4157239;28;20100;-72
2023/05/27 06:24:49;;;;;;;9.60;4.78;;;;;;;9.36;100.00;99664.84;4162575;28;20554;-72
2023/05/27 06:26:52;;;;;;;18.60;5.55;;;;;;;9.44;100.00;99673.03;4172605;28;20049;-72
2023/05/27 06:28:52;;;;;;;19.25;5.40;;;;;;;9.49;100.00;99664.50;4157377;28;20371;-72
2023/05/27 06:30:53;;;;;;;12.75;4.88;;;;;;;9.57;100.00;99671.09;4156571;28;20045;-72
2023/05/27 06:32:53;;;;;;;10.85;4.78;;;;;;;9.68;100.00;99680.56;4154450;28;20108;-71
2023/05/27 06:34:53;;;;;;;14.13;4.95;;;;;;;9.76;100.00;99676.91;4157501;28;20393;-72
2023/05/27 06:36:54;;;;;;;14.52;5.35;;;;;;;9.80;100.00;99675.06;4157374;28;20628;-72
2023/05/27 06:38:56;;;;;;;11.73;4.57;;;;;;;9.82;100.00;99675.50;4156897;28;20049;-71
2023/05/27 06:40:56;;;;;;;17.13;5.32;;;;;;;9.85;100.00;99669.31;4157135;28;20046;-71
2023/05/27 06:42:56;;;;;;;9.73;4.25;;;;;;;9.91;100.00;99664.34;4156704;28;20037;-72
2023/05/27 06:44:57;;;;;;;13.63;5.90;;;;;;;9.96;100.00;99657.78;4155816;28;20033;-72
2023/05/27 06:46:57;;;;;;;9.48;4.72;;;;;;;10.03;100.00;99658.03;4155832;28;20045;-71
2023/05/27 06:48:57;;;;;;;17.80;6.13;;;;;;;10.04;100.00;99663.19;4156227;28;20080;-71
2023/05/27 06:50:58;;;;;;;13.85;6.70;;;;;;;10.10;100.00;99653.53;4160480;28;20037;-71
2023/05/27 06:52:58;;;;;;;12.77;4.75;;;;;;;10.20;100.00;99645.91;4160471;28;20386;-71
2023/05/27 06:54:58;;;;;;;14.38;5.18;;;;;;;10.26;100.00;99650.91;4159305;28;20433;-73
2023/05/27 06:56:59;;;;;;;12.40;5.65;;;;;;;10.34;100.00;99649.13;4160119;28;20125;-73
2023/05/27 06:59:00;;;;;;;13.00;5.63;;;;;;;10.39;100.00;99646.94;4159773;28;20482;-71
2023/05/27 07:01:00;;;;;;;12.88;5.55;;;;;;;10.41;100.00;99647.41;4164526;28;20044;-72
2023/05/27 07:03:01;;;;;;;11.32;5.07;;;;;;;10.36;100.00;99650.44;4167460;28;20496;-72
2023/05/27 07:05:01;;;;;;;15.32;5.32;;;;;;;10.41;100.00;99657.66;4169014;28;20117;-72
2023/05/27 07:07:02;;;;;;;15.48;5.28;;;;;;;10.48;100.00;99649.59;4168547;28;20041;-73
2023/05/27 07:09:03;;;;;;;14.98;5.60;;;;;;;10.57;100.00;99646.69;4164764;28;20049;-73
2023/05/27 07:11:04;;;;;;;9.20;4.63;;;;;;;10.65;100.00;99637.44;4165147;28;20057;-71
2023/05/27 07:13:04;;;;;;;13.00;5.10;;;;;;;10.73;100.00;99644.00;4162937;28;20362;-71
2023/05/27 07:15:06;;;;;;;18.52;6.43;;;;;;;10.79;100.00;99639.81;4162156;28;20042;-72
2023/05/27 07:17:06;;;;;;;13.88;4.90;;;;;;;10.90;100.00;99644.50;4160334;28;20084;-71
2023/05/27 07:19:06;;;;;;;15.30;5.75;;;;;;;10.91;100.00;99634.22;4160268;28;20046;-71
2023/05/27 07:21:07;;;;;;;12.60;5.65;;;;;;;11.04;100.00;99640.53;4160718;28;20120;-71
2023/05/27 07:23:07;;;;;;;16.48;5.43;;;;;;;11.10;100.00;99639.94;4159920;28;20037;-71
2023/05/27 07:25:08;;;;;;;19.85;5.53;;;;;;;11.19;100.00;99631.47;4166418;28;20038;-71
2023/05/27 07:27:08;;;;;;;13.45;5.28;;;;;;;11.27;100.00;99638.00;4168345;28;20488;-71
2023/05/27 07:29:09;;;;;;;11.73;5.15;;;;;;;11.34;100.00;99630.69;4162087;28;20037;-71
2023/05/27 07:31:09;;;;;;;14.15;5.53;;;;;;;11.36;100.00;99625.59;4162769;28;20747;-71
2023/05/27 07:33:10;;;;;;;14.10;6.68;;;;;;;11.45;100.00;99636.50;4156485;28;20069;-71
2023/05/27 07:35:10;;;;;;;13.02;5.80;;;;;;;11.48;100.00;99633.03;4160225;28;20041;-71
2023/05/27 07:37:11;;;;;;;14.07;6.47;;;;;;;11.53;100.00;99638.31;4159377;28;20435;-71
2023/05/27 07:39:11;;;;;;;15.02;5.60;;;;;;;11.63;100.00;99629.47;4160477;28;20044;-71
2023/05/27 07:41:12;;;;;;;18.10;5.35;;;;;;;11.78;100.00;99628.66;4159531;28;20030;-71
2023/05/27 07:43:13;;;;;;;13.45;5.82;;;;;;;11.94;100.00;99627.88;4159663;28;20534;-71
2023/05/27 07:45:13;;;;;;;15.95;6.32;;;;;;;12.05;100.00;99626.97;4169749;28;20052;-71
2023/05/27 07:47:13;;;;;;;16.60;5.93;;;;;;;12.14;100.00;99621.22;4162130;28;20049;-71
2023/05/27 07:49:14;;;;;;;12.18;5.95;;;;;;;12.23;100.00;99627.38;4160185;28;20522;-71
2023/05/27 07:51:15;;;;;;;13.85;6.75;;;;;;;12.37;100.00;99613.03;4160254;28;20408;-71
2023/05/27 07:53:15;;;;;;;13.20;5.95;;;;;;;12.45;100.00;99614.00;4159100;28;20045;-71
2023/05/27 07:55:16;;;;;;;16.80;6.07;;;;;;;12.55;100.00;99617.00;4162398;28;20168;-71
2023/05/27 07:57:17;;;;;;;13.68;5.15;;;;;;;12.64;100.00;99619.56;4174053;28;20435;-71
2023/05/27 07:59:17;;;;;;;12.02;4.70;;;;;;;12.70;100.00;99617.31;4175159;28;20115;-71
2023/05/27 08:01:17;;;;;;;16.52;5.32;;;;;;;12.76;100.00;99601.97;4167887;28;20473;-71
2023/05/27 08:03:17;;;;;;;9.57;4.93;;;;;;;12.83;100.00;99614.03;4162521;28;20054;-71
2023/05/27 08:05:18;;;;;;;18.58;5.95;;;;;;;12.81;100.00;99598.88;4173244;28;20441;-71
2023/05/27 08:07:18;;;;;;;15.00;5.78;;;;;;;12.70;100.00;99607.00;4160648;28;20042;-71
2023/05/27 08:09:19;;;;;;;15.57;5.80;;;;;;;12.83;100.00;99602.13;4160158;28;20470;-71
2023/05/27 08:11:19;;;;;;;16.30;5.50;;;;;;;12.89;100.00;99589.53;4161657;28;20046;-71
2023/05/27 08:13:20;;;;;;;15.32;6.10;;;;;;;12.99;100.00;99590.91;4162679;28;20123;-71
2023/05/27 08:15:20;;;;;;;14.95;5.32;;;;;;;13.16;100.00;99593.25;4171465;28;20063;-71
2023/05/27 08:17:21;;;;;;;16.13;5.45;;;;;;;13.28;100.00;99590.31;4159720;28;20606;-71
2023/05/27 08:19:21;;;;;;;12.18;5.40;;;;;;;13.19;95.66;99587.78;4159472;28;20478;-71
2023/05/27 08:21:21;;;;;;;19.35;5.82;;;;;;;13.34;99.35;99583.28;4169578;28;20061;-71
2023/05/27 08:23:22;;;;;;;13.75;5.47;;;;;;;13.45;100.00;99587.03;4159183;28;20041;-71
2023/05/27 08:25:22;;;;;;;14.50;6.20;;;;;;;13.48;97.72;99582.72;4159862;28;20113;-71
2023/05/27 08:27:44;;;;;;;15.57;5.72;;;;;;;13.64;100.00;99588.94;4173419;28;20056;-71
2023/05/27 08:29:44;;;;;;;13.23;5.53;;;;;;;13.79;100.00;99576.09;4157887;28;20060;-71
2023/05/27 08:31:45;;;;;;;14.63;6.15;;;;;;;13.98;100.00;99584.38;4159860;28;20037;-71
2023/05/27 08:33:46;;;;;;;16.17;5.50;;;;;;;14.03;97.03;99569.31;4161932;28;20045;-71
2023/05/27 08:35:46;;;;;;;19.58;6.95;;;;;;;14.08;98.44;99565.41;4169943;28;20080;-71
2023/05/27 08:37:47;;;;;;;17.80;6.13;;;;;;;14.07;99.30;99564.63;4173955;28;20132;-71
2023/05/27 08:39:47;;;;;;;14.00;6.15;;;;;;;14.20;98.53;99562.41;4160571;28;20493;-71
2023/05/27 08:41:48;;;;;;;13.95;6.38;;;;;;;14.26;95.82;99558.91;4162822;28;20489;-71
2023/05/27 08:43:50;;;;;;;16.00;6.78;;;;;;;14.33;93.16;99558.22;4172696;28;20041;-71
2023/05/27 08:45:50;;;;;;;14.25;6.22;;;;;;;14.11;93.14;99556.31;4166285;28;20073;-71
2023/05/27 08:47:52;;;;;;;18.48;5.95;;;;;;;13.92;94.32;99555.25;4162794;28;20551;-71
2023/05/27 08:49:53;;;;;;;16.60;6.15;;;;;;;13.87;91.79;99557.53;4174183;28;20446;-71
2023/05/27 08:51:54;;;;;;;14.95;6.20;;;;;;;13.89;94.83;99555.97;4171437;28;20041;-71
2023/05/27 08:53:55;;;;;;;10.37;5.57;;;;;;;13.89;95.31;99553.19;4157849;28;20480;-71
2023/05/27 08:55:56;;;;;;;18.23;6.25;;;;;;;14.04;93.59;99548.66;4159202;28;20268;-71
2023/05/27 08:58:01;;;;;;;13.52;6.20;;;;;;;14.17;96.39;99549.25;4166962;28;20133;-71
2023/05/27 09:00:01;;;;;;;13.40;5.72;;;;;;;14.33;93.77;99549.88;4163393;28;20428;-71
2023/05/27 09:02:09;;;;;;;14.82;5.22;;;;;;;14.44;92.99;99545.22;4167484;28;20112;-71
2023/05/27 09:04:10;;;;;;;17.02;6.30;;;;;;;14.41;92.44;99537.66;4158626;28;20033;-71
2023/05/27 09:06:10;;;;;;;17.88;6.50;;;;;;;14.48;93.18;99543.34;4158973;28;20366;-71
2023/05/27 09:08:11;;;;;;;15.38;5.50;;;;;;;14.69;99.58;99542.00;4158956;28;20028;-72
2023/05/27 09:10:12;;;;;;;13.05;5.32;;;;;;;14.83;95.01;99531.81;4158877;28;20033;-71
2023/05/27 09:12:12;;;;;;;20.48;6.20;;;;;;;14.98;96.36;99524.41;4158136;28;20855;-72
2023/05/27 09:14:21;;;;;;;16.08;5.90;;;;;;;15.16;96.72;99527.38;4158215;28;20464;-71
2023/05/27 09:16:22;;;;;;;16.88;5.72;;;;;;;15.09;93.24;99519.75;4158749;28;20474;-72
2023/05/27 09:18:27;;;;;;;12.98;5.75;;;;;;;14.84;91.40;99515.91;4158817;28;20044;-71
2023/05/27 09:20:28;;;;;;;13.15;5.57;;;;;;;14.81;90.97;99523.03;4165134;28;20037;-71
2023/05/27 09:22:31;;;;;;;14.40;5.90;;;;;;;14.66;91.03;99515.72;4164490;28;20057;-71
2023/05/27 09:24:32;;;;;;;16.08;5.63;;;;;;;14.83;93.83;99525.44;4159070;28;20183;-72
2023/05/27 09:26:33;;;;;;;12.13;5.45;;;;;;;14.94;87.57;99526.34;4165428;28;20104;-71
2023/05/27 09:28:36;;;;;;;9.30;4.43;;;;;;;14.92;87.38;99511.22;4165383;28;20567;-71